Burgin, KY (40310)

03:47 PM EDT del 31 Agosto 2015 (GMT -0400)
Berwick Drive | | Change Station
CLOSE
Current Station
Stazione meteo personale
Location: Danville, KY
Altitudine: 980 ft
Stazioni meteo nelle vicinanze

Alt. 980 ft 37.66 °N, 84.79 °W | Updated 1 minute ago

Parzialmente nuvoloso
Parzialmente nuvoloso
86.8 °F
Sembra 89 °F
N
2.0
Vento Variabile Vento da SE
Gusts 3.0 mph

Oggi
Massima -- | Minima -- °F
--% Possibilità di precip.
Ieri
Massima -- | Minima -- °F
Precip. -- in
7:08 AM 8:10 PM
Gobba a levante, 94% visible
Pressione 30.13 in
Visibilità 10.0 miglia
Nuvole Sereno
Indice di calore 89 °F
Punto di rugiada 65 °F
Umidità 49%
Piovosità 0.00 in
Spessore del manto nevoso Non disponibile.
Raggi UV 8 fuori da 12
Polline 9.50 fuori da 12
Qualità dell'aria Non disponibile.
Flu Activity Non disponibile.
METAR KDVK 311935Z AUTO 00000KT 10SM CLR 29/16 A3013 RMK AO2
Pressione 30.13 in
Visibilità 10.0 miglia
Nuvole Sereno
Indice di calore 89 °F
Punto di rugiada 65 °F
Umidità 49%
Piovosità 0.00 in
Spessore del manto nevoso Non disponibile.
Raggi UV 8 fuori da 12
Polline 9.50 fuori da 12
Qualità dell'aria Non disponibile.
Flu Activity Non disponibile.
METAR KDVK 311935Z AUTO 00000KT 10SM CLR 29/16 A3013 RMK AO2

10-Day Weather Forecast

×

Almanac

Astronomia

Aug. 31, 2015 Alba Tramonto
Ora attuale
Crepuscolo civile
Crepuscolo nautico
Crepuscolo astronomico
Luna
Estensione della luce visibile
Lunghezza del giorno
Tomorrow will be .
, % of the Moon is Illuminated

Gli estremi di oggi

State Highs State Lows

Community

WunderPhotos

Upload Photos

1,851,346 foto caricate!

WunderBlogs® & News

Nearby

Qualità dell'aria

  Qualità dell'aria Indice AQ Inquinante
Not available.

Profondità neve

Stazione Profondità Altitudine

Attività sismica

Città  Distanza Mag. Data & Ora
Minimo Magnitudo Mostrato è 2.5.

Temperature delle acque costiere

Località Temperatura

Stations

Stazioni meteo nelle vicinanze

Ubicazione della stazione Temp. Raffreddamento del vento Punto di rugiada Umidità Vento Precip. Alt. Aggiornato Tipo